sensor_id;sensor_type;location;lat;lon;timestamp;pressure;altitude;pressure_sealevel;temperature;humidity
15634;BME280;14654;48.898;8.308;2022-12-18T00:01:58;101516.28;;;-6.16;100.00
15634;BME280;14654;48.898;8.308;2022-12-18T00:04:27;101520.22;;;-6.20;100.00
15634;BME280;14654;48.898;8.308;2022-12-18T00:06:53;101524.00;;;-6.25;100.00
15634;BME280;14654;48.898;8.308;2022-12-18T00:09:19;101530.44;;;-6.29;100.00
15634;BME280;14654;48.898;8.308;2022-12-18T00:11:45;101529.34;;;-6.32;100.00
15634;BME280;14654;48.898;8.308;2022-12-18T00:14:11;101524.41;;;-6.31;100.00
15634;BME280;14654;48.898;8.308;2022-12-18T00:16:37;101532.97;;;-6.29;100.00
15634;BME280;14654;48.898;8.308;2022-12-18T00:19:05;101528.28;;;-6.24;100.00
15634;BME280;14654;48.898;8.308;2022-12-18T00:21:31;101527.03;;;-6.19;100.00
15634;BME280;14654;48.898;8.308;2022-12-18T00:23:58;101526.63;;;-6.13;100.00
15634;BME280;14654;48.898;8.308;2022-12-18T00:26:32;101530.50;;;-6.06;100.00
15634;BME280;14654;48.898;8.308;2022-12-18T00:28:59;101534.13;;;-6.03;100.00
15634;BME280;14654;48.898;8.308;2022-12-18T00:31:25;101535.34;;;-5.98;100.00
15634;BME280;14654;48.898;8.308;2022-12-18T00:33:50;101535.59;;;-5.94;100.00
15634;BME280;14654;48.898;8.308;2022-12-18T00:36:19;101528.38;;;-5.90;100.00
15634;BME280;14654;48.898;8.308;2022-12-18T00:38:45;101532.00;;;-5.86;100.00
15634;BME280;14654;48.898;8.308;2022-12-18T00:41:12;101529.50;;;-5.86;100.00
15634;BME280;14654;48.898;8.308;2022-12-18T00:43:38;101530.50;;;-5.84;100.00
15634;BME280;14654;48.898;8.308;2022-12-18T00:46:04;101528.88;;;-5.84;100.00
15634;BME280;14654;48.898;8.308;2022-12-18T00:48:29;101519.75;;;-5.82;100.00
15634;BME280;14654;48.898;8.308;2022-12-18T00:50:55;101522.41;;;-5.80;100.00
15634;BME280;14654;48.898;8.308;2022-12-18T00:53:20;101521.88;;;-5.98;100.00
15634;BME280;14654;48.898;8.308;2022-12-18T00:55:46;101528.50;;;-6.10;100.00
15634;BME280;14654;48.898;8.308;2022-12-18T00:58:13;101530.41;;;-6.18;100.00
15634;BME280;14654;48.898;8.308;2022-12-18T01:00:39;101526.53;;;-6.25;100.00
15634;BME280;14654;48.898;8.308;2022-12-18T01:03:05;101525.31;;;-6.30;100.00
15634;BME280;14654;48.898;8.308;2022-12-18T01:05:30;101521.63;;;-6.34;100.00
15634;BME280;14654;48.898;8.308;2022-12-18T01:07:57;101517.34;;;-6.35;100.00
15634;BME280;14654;48.898;8.308;2022-12-18T01:10:23;101522.94;;;-6.39;100.00
15634;BME280;14654;48.898;8.308;2022-12-18T01:12:48;101529.47;;;-6.41;100.00
15634;BME280;14654;48.898;8.308;2022-12-18T01:15:14;101525.47;;;-6.49;100.00
15634;BME280;14654;48.898;8.308;2022-12-18T01:17:40;101529.13;;;-6.56;100.00
15634;BME280;14654;48.898;8.308;2022-12-18T01:20:06;101536.56;;;-6.57;100.00
15634;BME280;14654;48.898;8.308;2022-12-18T01:22:33;101524.22;;;-6.65;100.00
15634;BME280;14654;48.898;8.308;2022-12-18T01:24:59;101520.47;;;-6.70;100.00
15634;BME280;14654;48.898;8.308;2022-12-18T01:27:24;101519.38;;;-6.74;100.00
15634;BME280;14654;48.898;8.308;2022-12-18T01:29:49;101523.09;;;-6.68;100.00
15634;BME280;14654;48.898;8.308;2022-12-18T01:32:15;101511.13;;;-6.61;100.00
15634;BME280;14654;48.898;8.308;2022-12-18T01:34:40;101512.88;;;-6.49;100.00
15634;BME280;14654;48.898;8.308;2022-12-18T01:37:05;101520.28;;;-6.40;100.00
15634;BME280;14654;48.898;8.308;2022-12-18T01:39:32;101539.41;;;-6.32;100.00
15634;BME280;14654;48.898;8.308;2022-12-18T01:41:59;101546.81;;;-6.23;100.00
15634;BME280;14654;48.898;8.308;2022-12-18T01:49:55;101543.41;;;-6.24;100.00
15634;BME280;14654;48.898;8.308;2022-12-18T01:52:21;101540.28;;;-6.32;100.00
15634;BME280;14654;48.898;8.308;2022-12-18T01:54:48;101533.25;;;-6.36;100.00
15634;BME280;14654;48.898;8.308;2022-12-18T01:57:16;101525.97;;;-6.43;100.00
15634;BME280;14654;48.898;8.308;2022-12-18T01:59:44;101532.03;;;-6.51;100.00
15634;BME280;14654;48.898;8.308;2022-12-18T02:02:11;101533.28;;;-6.56;100.00
15634;BME280;14654;48.898;8.308;2022-12-18T02:04:37;101542.47;;;-6.57;100.00
15634;BME280;14654;48.898;8.308;2022-12-18T02:10:20;101544.75;;;-6.50;100.00
15634;BME280;14654;48.898;8.308;2022-12-18T02:12:53;101546.75;;;-6.46;100.00
15634;BME280;14654;48.898;8.308;2022-12-18T02:15:27;101546.22;;;-6.41;100.00
15634;BME280;14654;48.898;8.308;2022-12-18T02:18:07;101547.88;;;-6.42;100.00
15634;BME280;14654;48.898;8.308;2022-12-18T02:20:41;101547.88;;;-6.42;100.00
15634;BME280;14654;48.898;8.308;2022-12-18T02:23:56;101547.88;;;-6.42;100.00
15634;BME280;14654;48.898;8.308;2022-12-18T02:26:28;101542.72;;;-6.44;100.00
15634;BME280;14654;48.898;8.308;2022-12-18T02:28:57;101549.75;;;-6.39;100.00
15634;BME280;14654;48.898;8.308;2022-12-18T02:31:27;101549.00;;;-6.38;100.00
15634;BME280;14654;48.898;8.308;2022-12-18T02:33:59;101553.41;;;-6.36;100.00
15634;BME280;14654;48.898;8.308;2022-12-18T02:36:27;101553.41;;;-6.36;100.00
15634;BME280;14654;48.898;8.308;2022-12-18T02:38:54;101547.22;;;-6.29;100.00
15634;BME280;14654;48.898;8.308;2022-12-18T02:41:23;101542.03;;;-6.31;100.00
15634;BME280;14654;48.898;8.308;2022-12-18T02:43:56;101529.69;;;-6.28;100.00
15634;BME280;14654;48.898;8.308;2022-12-18T02:46:27;101539.00;;;-6.26;100.00
15634;BME280;14654;48.898;8.308;2022-12-18T02:49:01;101538.13;;;-6.27;100.00
15634;BME280;14654;48.898;8.308;2022-12-18T02:51:44;101545.81;;;-6.25;100.00
15634;BME280;14654;48.898;8.308;2022-12-18T02:57:25;101554.03;;;-6.28;100.00
15634;BME280;14654;48.898;8.308;2022-12-18T03:05:22;101555.00;;;-6.26;100.00
15634;BME280;14654;48.898;8.308;2022-12-18T03:08:12;101562.56;;;-6.26;100.00
15634;BME280;14654;48.898;8.308;2022-12-18T03:10:43;101561.69;;;-6.26;100.00
15634;BME280;14654;48.898;8.308;2022-12-18T03:13:18;101558.66;;;-6.22;100.00
15634;BME280;14654;48.898;8.308;2022-12-18T03:15:48;101558.13;;;-6.18;100.00
15634;BME280;14654;48.898;8.308;2022-12-18T03:18:30;101547.53;;;-6.14;100.00
15634;BME280;14654;48.898;8.308;2022-12-18T03:20:58;101554.84;;;-6.07;100.00
15634;BME280;14654;48.898;8.308;2022-12-18T03:23:27;101553.44;;;-6.03;100.00
15634;BME280;14654;48.898;8.308;2022-12-18T03:25:57;101553.75;;;-5.99;100.00
15634;BME280;14654;48.898;8.308;2022-12-18T03:28:24;101558.13;;;-5.96;100.00
15634;BME280;14654;48.898;8.308;2022-12-18T03:30:53;101560.16;;;-5.92;100.00
15634;BME280;14654;48.898;8.308;2022-12-18T03:33:26;101560.50;;;-5.87;100.00
15634;BME280;14654;48.898;8.308;2022-12-18T03:35:52;101556.59;;;-5.84;100.00
15634;BME280;14654;48.898;8.308;2022-12-18T03:38:18;101564.38;;;-5.81;100.00
15634;BME280;14654;48.898;8.308;2022-12-18T03:43:25;101557.31;;;-5.74;100.00
15634;BME280;14654;48.898;8.308;2022-12-18T03:46:10;101553.03;;;-5.75;100.00
15634;BME280;14654;48.898;8.308;2022-12-18T03:48:44;101548.75;;;-5.76;100.00
15634;BME280;14654;48.898;8.308;2022-12-18T03:51:42;101539.16;;;-5.81;100.00
15634;BME280;14654;48.898;8.308;2022-12-18T03:54:10;101532.50;;;-5.80;100.00
15634;BME280;14654;48.898;8.308;2022-12-18T03:56:40;101528.47;;;-5.78;100.00
15634;BME280;14654;48.898;8.308;2022-12-18T03:59:08;101530.22;;;-5.77;100.00
15634;BME280;14654;48.898;8.308;2022-12-18T04:01:39;101523.53;;;-5.76;100.00
15634;BME280;14654;48.898;8.308;2022-12-18T04:04:08;101531.97;;;-5.76;100.00
15634;BME280;14654;48.898;8.308;2022-12-18T04:06:35;101530.31;;;-5.75;100.00
15634;BME280;14654;48.898;8.308;2022-12-18T04:09:01;101535.47;;;-5.74;100.00
15634;BME280;14654;48.898;8.308;2022-12-18T04:11:26;101541.53;;;-5.72;100.00
15634;BME280;14654;48.898;8.308;2022-12-18T04:13:55;101542.53;;;-5.70;100.00
15634;BME280;14654;48.898;8.308;2022-12-18T04:16:21;101538.47;;;-5.68;100.00
15634;BME280;14654;48.898;8.308;2022-12-18T04:18:47;101539.59;;;-5.64;100.00
15634;BME280;14654;48.898;8.308;2022-12-18T04:21:12;101528.75;;;-5.63;100.00
15634;BME280;14654;48.898;8.308;2022-12-18T04:23:37;101540.25;;;-5.67;100.00
15634;BME280;14654;48.898;8.308;2022-12-18T04:26:03;101535.84;;;-5.69;100.00
15634;BME280;14654;48.898;8.308;2022-12-18T04:28:28;101530.69;;;-5.71;100.00
15634;BME280;14654;48.898;8.308;2022-12-18T04:30:53;101524.09;;;-5.69;100.00
15634;BME280;14654;48.898;8.308;2022-12-18T04:33:19;101518.31;;;-5.68;100.00
15634;BME280;14654;48.898;8.308;2022-12-18T04:35:45;101532.56;;;-5.68;100.00
15634;BME280;14654;48.898;8.308;2022-12-18T04:38:10;101541.88;;;-5.67;100.00
15634;BME280;14654;48.898;8.308;2022-12-18T04:40:36;101544.53;;;-5.66;100.00
15634;BME280;14654;48.898;8.308;2022-12-18T04:43:02;101540.25;;;-5.67;100.00
15634;BME280;14654;48.898;8.308;2022-12-18T04:45:28;101538.47;;;-5.68;100.00
15634;BME280;14654;48.898;8.308;2022-12-18T04:47:57;101540.25;;;-5.67;100.00
15634;BME280;14654;48.898;8.308;2022-12-18T04:50:22;101537.81;;;-5.65;100.00
15634;BME280;14654;48.898;8.308;2022-12-18T04:52:48;101538.97;;;-5.61;100.00
15634;BME280;14654;48.898;8.308;2022-12-18T04:55:13;101534.69;;;-5.62;100.00
15634;BME280;14654;48.898;8.308;2022-12-18T04:57:38;101542.13;;;-5.64;100.00
15634;BME280;14654;48.898;8.308;2022-12-18T05:00:04;101541.34;;;-5.63;100.00
15634;BME280;14654;48.898;8.308;2022-12-18T05:02:31;101548.81;;;-5.64;100.00
15634;BME280;14654;48.898;8.308;2022-12-18T05:04:56;101545.53;;;-5.63;100.00
15634;BME280;14654;48.898;8.308;2022-12-18T05:07:23;101558.25;;;-5.62;100.00
15634;BME280;14654;48.898;8.308;2022-12-18T05:09:48;101560.91;;;-5.60;100.00
15634;BME280;14654;48.898;8.308;2022-12-18T05:12:13;101559.25;;;-5.60;100.00
15634;BME280;14654;48.898;8.308;2022-12-18T05:14:39;101563.53;;;-5.59;100.00
15634;BME280;14654;48.898;8.308;2022-12-18T05:17:04;101563.63;;;-5.57;100.00
15634;BME280;14654;48.898;8.308;2022-12-18T05:19:30;101556.22;;;-5.56;100.00
15634;BME280;14654;48.898;8.308;2022-12-18T05:21:55;101558.84;;;-5.54;100.00
15634;BME280;14654;48.898;8.308;2022-12-18T05:24:20;101554.69;;;-5.54;100.00
15634;BME280;14654;48.898;8.308;2022-12-18T05:26:46;101553.13;;;-5.52;100.00
15634;BME280;14654;48.898;8.308;2022-12-18T05:29:11;101553.03;;;-5.53;100.00
15634;BME280;14654;48.898;8.308;2022-12-18T05:31:38;101552.28;;;-5.52;100.00
15634;BME280;14654;48.898;8.308;2022-12-18T05:34:04;101558.31;;;-5.50;100.00
15634;BME280;14654;48.898;8.308;2022-12-18T05:36:29;101554.03;;;-5.51;100.00
15634;BME280;14654;48.898;8.308;2022-12-18T05:38:54;101559.19;;;-5.49;100.00
15634;BME280;14654;48.898;8.308;2022-12-18T05:41:19;101545.81;;;-5.48;100.00
15634;BME280;14654;48.898;8.308;2022-12-18T05:43:45;101545.81;;;-5.48;100.00
15634;BME280;14654;48.898;8.308;2022-12-18T05:46:15;101556.13;;;-5.45;100.00
15634;BME280;14654;48.898;8.308;2022-12-18T05:48:42;101553.50;;;-5.47;100.00
15634;BME280;14654;48.898;8.308;2022-12-18T05:51:14;101551.75;;;-5.48;100.00
15634;BME280;14654;48.898;8.308;2022-12-18T05:53:40;101554.28;;;-5.48;100.00
15634;BME280;14654;48.898;8.308;2022-12-18T05:56:11;101560.31;;;-5.46;100.00
15634;BME280;14654;48.898;8.308;2022-12-18T05:58:37;101566.13;;;-5.47;100.00
15634;BME280;14654;48.898;8.308;2022-12-18T06:03:35;101569.66;;;-5.45;100.00
15634;BME280;14654;48.898;8.308;2022-12-18T06:06:01;101571.38;;;-5.44;100.00
15634;BME280;14654;48.898;8.308;2022-12-18T06:08:26;101563.81;;;-5.44;100.00
15634;BME280;14654;48.898;8.308;2022-12-18T06:10:52;101581.72;;;-5.41;100.00
15634;BME280;14654;48.898;8.308;2022-12-18T06:13:18;101577.56;;;-5.40;100.00
15634;BME280;14654;48.898;8.308;2022-12-18T06:15:43;101575.16;;;-5.39;100.00
15634;BME280;14654;48.898;8.308;2022-12-18T06:18:08;101587.91;;;-5.37;100.00
15634;BME280;14654;48.898;8.308;2022-12-18T06:20:34;101595.56;;;-5.36;100.00
15634;BME280;14654;48.898;8.308;2022-12-18T06:23:01;101593.91;;;-5.35;100.00
15634;BME280;14654;48.898;8.308;2022-12-18T06:25:27;101596.69;;;-5.32;100.00
15634;BME280;14654;48.898;8.308;2022-12-18T06:27:52;101606.00;;;-5.31;100.00
15634;BME280;14654;48.898;8.308;2022-12-18T06:30:17;101611.97;;;-5.30;100.00
15634;BME280;14654;48.898;8.308;2022-12-18T06:32:42;101612.81;;;-5.30;100.00
15634;BME280;14654;48.898;8.308;2022-12-18T06:35:08;101606.53;;;-5.35;100.00
15634;BME280;14654;48.898;8.308;2022-12-18T06:37:33;101610.72;;;-5.36;100.00
15634;BME280;14654;48.898;8.308;2022-12-18T06:39:59;101617.38;;;-5.36;100.00
15634;BME280;14654;48.898;8.308;2022-12-18T06:42:26;101617.53;;;-5.34;100.00
15634;BME280;14654;48.898;8.308;2022-12-18T06:44:51;101624.19;;;-5.35;100.00
15634;BME280;14654;48.898;8.308;2022-12-18T06:47:17;101627.63;;;-5.34;100.00
15634;BME280;14654;48.898;8.308;2022-12-18T06:49:42;101622.69;;;-5.33;100.00
15634;BME280;14654;48.898;8.308;2022-12-18T06:52:08;101623.44;;;-5.34;100.00
15634;BME280;14654;48.898;8.308;2022-12-18T06:54:33;101625.34;;;-5.31;100.00
15634;BME280;14654;48.898;8.308;2022-12-18T06:56:59;101621.03;;;-5.32;100.00
15634;BME280;14654;48.898;8.308;2022-12-18T06:59:24;101627.72;;;-5.33;100.00
15634;BME280;14654;48.898;8.308;2022-12-18T07:01:49;101632.78;;;-5.33;100.00
15634;BME280;14654;48.898;8.308;2022-12-18T07:04:15;101628.28;;;-5.37;100.00
15634;BME280;14654;48.898;8.308;2022-12-18T07:06:40;101620.56;;;-5.39;100.00
15634;BME280;14654;48.898;8.308;2022-12-18T07:09:05;101623.09;;;-5.39;100.00
15634;BME280;14654;48.898;8.308;2022-12-18T07:11:32;101629.66;;;-5.41;100.00
15634;BME280;14654;48.898;8.308;2022-12-18T07:14:01;101624.75;;;-5.39;100.00
15634;BME280;14654;48.898;8.308;2022-12-18T07:16:27;101629.13;;;-5.37;100.00
15634;BME280;14654;48.898;8.308;2022-12-18T07:18:55;101639.13;;;-5.38;100.00
15634;BME280;14654;48.898;8.308;2022-12-18T07:21:22;101627.47;;;-5.36;100.00
15634;BME280;14654;48.898;8.308;2022-12-18T07:23:48;101635.06;;;-5.36;100.00
15634;BME280;14654;48.898;8.308;2022-12-18T07:26:15;101628.38;;;-5.36;100.00
15634;BME280;14654;48.898;8.308;2022-12-18T07:28:41;101637.72;;;-5.34;100.00
15634;BME280;14654;48.898;8.308;2022-12-18T07:31:12;101630.25;;;-5.33;100.00
15634;BME280;14654;48.898;8.308;2022-12-18T07:33:38;101627.09;;;-5.30;100.00
15634;BME280;14654;48.898;8.308;2022-12-18T07:36:04;101633.25;;;-5.27;100.00
15634;BME280;14654;48.898;8.308;2022-12-18T07:38:30;101634.34;;;-5.23;100.00
15634;BME280;14654;48.898;8.308;2022-12-18T07:41:03;101641.94;;;-5.23;100.00
15634;BME280;14654;48.898;8.308;2022-12-18T07:43:29;101647.88;;;-5.23;100.00
15634;BME280;14654;48.898;8.308;2022-12-18T07:45:54;101648.84;;;-5.21;100.00
15634;BME280;14654;48.898;8.308;2022-12-18T07:48:20;101646.47;;;-5.19;100.00
15634;BME280;14654;48.898;8.308;2022-12-18T07:50:45;101656.81;;;-5.16;100.00
15634;BME280;14654;48.898;8.308;2022-12-18T07:53:10;101656.16;;;-5.13;100.00
15634;BME280;14654;48.898;8.308;2022-12-18T07:55:35;101662.28;;;-5.10;100.00
15634;BME280;14654;48.898;8.308;2022-12-18T07:58:04;101659.25;;;-5.06;100.00
15634;BME280;14654;48.898;8.308;2022-12-18T08:00:30;101665.31;;;-5.03;100.00
15634;BME280;14654;48.898;8.308;2022-12-18T08:02:56;101670.59;;;-5.00;100.00
15634;BME280;14654;48.898;8.308;2022-12-18T08:05:22;101675.75;;;-4.99;100.00
15634;BME280;14654;48.898;8.308;2022-12-18T08:07:48;101676.00;;;-4.96;100.00
15634;BME280;14654;48.898;8.308;2022-12-18T08:10:14;101675.34;;;-4.93;100.00
15634;BME280;14654;48.898;8.308;2022-12-18T08:12:39;101673.81;;;-4.91;100.00
15634;BME280;14654;48.898;8.308;2022-12-18T08:15:05;101673.03;;;-4.90;100.00
15634;BME280;14654;48.898;8.308;2022-12-18T08:17:30;101678.97;;;-4.90;100.00
15634;BME280;14654;48.898;8.308;2022-12-18T08:19:56;101681.38;;;-4.91;100.00
15634;BME280;14654;48.898;8.308;2022-12-18T08:22:21;101673.47;;;-4.96;100.00
15634;BME280;14654;48.898;8.308;2022-12-18T08:24:46;101680.38;;;-4.93;100.00
15634;BME280;14654;48.898;8.308;2022-12-18T08:27:12;101677.19;;;-4.91;100.00
15634;BME280;14654;48.898;8.308;2022-12-18T08:29:37;101666.72;;;-4.85;100.00
15634;BME280;14654;48.898;8.308;2022-12-18T08:32:03;101667.06;;;-4.80;100.00
15634;BME280;14654;48.898;8.308;2022-12-18T08:34:28;101662.44;;;-4.74;100.00
15634;BME280;14654;48.898;8.308;2022-12-18T08:36:54;101663.16;;;-4.65;100.00
15634;BME280;14654;48.898;8.308;2022-12-18T08:39:19;101662.97;;;-4.56;100.00
15634;BME280;14654;48.898;8.308;2022-12-18T08:41:44;101650.25;;;-4.46;100.00
15634;BME280;14654;48.898;8.308;2022-12-18T08:44:29;101636.50;;;-4.37;100.00
15634;BME280;14654;48.898;8.308;2022-12-18T08:47:07;101641.34;;;-4.29;100.00
15634;BME280;14654;48.898;8.308;2022-12-18T08:49:33;101629.94;;;-4.23;100.00
15634;BME280;14654;48.898;8.308;2022-12-18T08:51:59;101626.88;;;-4.19;100.00
15634;BME280;14654;48.898;8.308;2022-12-18T08:54:25;101621.25;;;-4.15;100.00
15634;BME280;14654;48.898;8.308;2022-12-18T08:56:51;101614.13;;;-4.09;100.00
15634;BME280;14654;48.898;8.308;2022-12-18T08:59:17;101613.69;;;-4.03;100.00
15634;BME280;14654;48.898;8.308;2022-12-18T09:01:42;101614.75;;;-4.00;100.00
15634;BME280;14654;48.898;8.308;2022-12-18T09:04:11;101617.44;;;-3.98;99.31
15634;BME280;14654;48.898;8.308;2022-12-18T09:06:37;101615.78;;;-4.09;98.34
15634;BME280;14654;48.898;8.308;2022-12-18T09:09:03;101612.56;;;-4.19;98.18
15634;BME280;14654;48.898;8.308;2022-12-18T09:11:30;101625.44;;;-4.16;99.03
15634;BME280;14654;48.898;8.308;2022-12-18T09:13:55;101633.56;;;-4.08;98.90
15634;BME280;14654;48.898;8.308;2022-12-18T09:16:23;101626.00;;;-3.96;98.75
15634;BME280;14654;48.898;8.308;2022-12-18T09:18:49;101631.06;;;-3.96;98.34
15634;BME280;14654;48.898;8.308;2022-12-18T09:21:19;101639.84;;;-3.91;98.50
15634;BME280;14654;48.898;8.308;2022-12-18T09:23:55;101636.75;;;-3.87;98.25
15634;BME280;14654;48.898;8.308;2022-12-18T09:26:24;101633.03;;;-3.80;98.23
15634;BME280;14654;48.898;8.308;2022-12-18T09:28:50;101637.09;;;-3.70;97.97
15634;BME280;14654;48.898;8.308;2022-12-18T09:31:18;101653.91;;;-3.59;97.84
15634;BME280;14654;48.898;8.308;2022-12-18T09:33:43;101659.63;;;-3.49;97.59
15634;BME280;14654;48.898;8.308;2022-12-18T09:36:15;101670.94;;;-3.44;97.08
15634;BME280;14654;48.898;8.308;2022-12-18T09:38:41;101673.91;;;-3.50;96.44
15634;BME280;14654;48.898;8.308;2022-12-18T09:44:09;101670.06;;;-3.57;96.10
15634;BME280;14654;48.898;8.308;2022-12-18T09:46:38;101673.38;;;-3.58;96.38
15634;BME280;14654;48.898;8.308;2022-12-18T09:49:12;101675.44;;;-3.52;96.32
15634;BME280;14654;48.898;8.308;2022-12-18T09:51:45;101674.69;;;-3.51;96.20
15634;BME280;14654;48.898;8.308;2022-12-18T09:54:16;101680.41;;;-3.54;95.82
15634;BME280;14654;48.898;8.308;2022-12-18T09:56:43;101687.25;;;-3.53;96.13
15634;BME280;14654;48.898;8.308;2022-12-18T09:59:25;101694.47;;;-3.45;96.19
15634;BME280;14654;48.898;8.308;2022-12-18T10:01:52;101697.22;;;-3.42;95.90
15634;BME280;14654;48.898;8.308;2022-12-18T10:04:17;101696.81;;;-3.48;95.34
15634;BME280;14654;48.898;8.308;2022-12-18T10:12:05;101697.91;;;-3.45;95.75
15634;BME280;14654;48.898;8.308;2022-12-18T10:14:55;101691.72;;;-3.25;95.72
15634;BME280;14654;48.898;8.308;2022-12-18T10:20:03;101693.44;;;-3.12;94.84
15634;BME280;14654;48.898;8.308;2022-12-18T10:25:34;101676.50;;;-3.13;94.40
15634;BME280;14654;48.898;8.308;2022-12-18T10:28:10;101669.09;;;-3.10;94.59
15634;BME280;14654;48.898;8.308;2022-12-18T10:30:38;101657.63;;;-3.04;94.52
15634;BME280;14654;48.898;8.308;2022-12-18T10:33:04;101663.22;;;-2.97;94.54
15634;BME280;14654;48.898;8.308;2022-12-18T10:35:29;101666.41;;;-2.87;94.50
15634;BME280;14654;48.898;8.308;2022-12-18T10:38:20;101653.44;;;-2.79;94.37
15634;BME280;14654;48.898;8.308;2022-12-18T10:40:52;101665.06;;;-2.69;94.10
15634;BME280;14654;48.898;8.308;2022-12-18T10:46:19;101666.81;;;-2.42;93.56
15634;BME280;14654;48.898;8.308;2022-12-18T10:51:39;101657.47;;;-2.30;92.91
15634;BME280;14654;48.898;8.308;2022-12-18T10:54:06;101660.78;;;-2.31;92.44
15634;BME280;14654;48.898;8.308;2022-12-18T10:56:34;101649.66;;;-2.33;92.27
15634;BME280;14654;48.898;8.308;2022-12-18T11:01:27;101649.38;;;-2.38;92.18
15634;BME280;14654;48.898;8.308;2022-12-18T11:06:20;101660.25;;;-2.52;91.59
15634;BME280;14654;48.898;8.308;2022-12-18T11:09:20;101661.88;;;-2.66;91.73
15634;BME280;14654;48.898;8.308;2022-12-18T11:11:51;101664.81;;;-2.60;92.08
15634;BME280;14654;48.898;8.308;2022-12-18T11:14:22;101659.75;;;-2.60;91.91
15634;BME280;14654;48.898;8.308;2022-12-18T11:16:49;101659.75;;;-2.60;91.75
15634;BME280;14654;48.898;8.308;2022-12-18T11:19:37;101665.03;;;-2.57;91.90
15634;BME280;14654;48.898;8.308;2022-12-18T11:22:22;101659.09;;;-2.57;91.66
15634;BME280;14654;48.898;8.308;2022-12-18T11:25:00;101657.34;;;-2.58;91.82
15634;BME280;14654;48.898;8.308;2022-12-18T11:27:26;101648.63;;;-2.62;91.87
15634;BME280;14654;48.898;8.308;2022-12-18T11:30:29;101663.44;;;-2.68;91.73
15634;BME280;14654;48.898;8.308;2022-12-18T11:35:58;101651.09;;;-3.01;91.98
15634;BME280;14654;48.898;8.308;2022-12-18T11:38:31;101651.47;;;-3.08;92.54
15634;BME280;14654;48.898;8.308;2022-12-18T11:41:02;101641.44;;;-3.07;92.98
15634;BME280;14654;48.898;8.308;2022-12-18T11:43:37;101647.72;;;-3.01;93.04
15634;BME280;14654;48.898;8.308;2022-12-18T11:46:34;101641.63;;;-2.92;92.73
15634;BME280;14654;48.898;8.308;2022-12-18T11:49:07;101630.66;;;-3.04;92.14
15634;BME280;14654;48.898;8.308;2022-12-18T11:54:14;101618.91;;;-2.90;92.49
15634;BME280;14654;48.898;8.308;2022-12-18T11:56:48;101622.94;;;-2.80;92.07
15634;BME280;14654;48.898;8.308;2022-12-18T12:01:50;101619.97;;;-2.86;91.38
15634;BME280;14654;48.898;8.308;2022-12-18T12:12:45;101589.53;;;-3.00;92.57
15634;BME280;14654;48.898;8.308;2022-12-18T12:26:06;101604.41;;;-2.93;92.67
15634;BME280;14654;48.898;8.308;2022-12-18T12:28:55;101604.78;;;-2.86;92.71
15634;BME280;14654;48.898;8.308;2022-12-18T12:34:00;101616.88;;;-2.82;92.55
15634;BME280;14654;48.898;8.308;2022-12-18T12:39:18;101615.38;;;-2.92;92.17
15634;BME280;14654;48.898;8.308;2022-12-18T12:41:46;101614.94;;;-3.12;92.08
15634;BME280;14654;48.898;8.308;2022-12-18T12:44:35;101612.19;;;-3.15;92.97
15634;BME280;14654;48.898;8.308;2022-12-18T12:47:14;101605.00;;;-3.09;93.28
15634;BME280;14654;48.898;8.308;2022-12-18T12:49:41;101606.66;;;-3.09;93.20
15634;BME280;14654;48.898;8.308;2022-12-18T12:52:16;101604.34;;;-3.06;93.48
15634;BME280;14654;48.898;8.308;2022-12-18T12:54:43;101607.75;;;-3.06;93.62
15634;BME280;14654;48.898;8.308;2022-12-18T12:57:23;101593.75;;;-3.00;93.84
15634;BME280;14654;48.898;8.308;2022-12-18T12:59:52;101596.09;;;-2.90;93.66
15634;BME280;14654;48.898;8.308;2022-12-18T13:08:31;101567.75;;;-2.84;93.16
15634;BME280;14654;48.898;8.308;2022-12-18T13:10:58;101563.59;;;-2.84;93.35
15634;BME280;14654;48.898;8.308;2022-12-18T13:13:55;101563.66;;;-2.96;93.28
15634;BME280;14654;48.898;8.308;2022-12-18T13:16:23;101554.69;;;-3.04;93.54
15634;BME280;14654;48.898;8.308;2022-12-18T13:18:57;101541.94;;;-3.17;93.65
15634;BME280;14654;48.898;8.308;2022-12-18T13:21:32;101536.56;;;-3.22;93.98
15634;BME280;14654;48.898;8.308;2022-12-18T13:24:15;101533.41;;;-3.19;94.60
15634;BME280;14654;48.898;8.308;2022-12-18T13:26:47;101533.47;;;-3.18;94.69
15634;BME280;14654;48.898;8.308;2022-12-18T13:29:39;101540.31;;;-3.17;94.72
15634;BME280;14654;48.898;8.308;2022-12-18T13:32:19;101528.41;;;-3.18;95.09
15634;BME280;14654;48.898;8.308;2022-12-18T13:34:45;101530.19;;;-3.17;95.07
15634;BME280;14654;48.898;8.308;2022-12-18T13:39:58;101519.38;;;-3.14;95.46
15634;BME280;14654;48.898;8.308;2022-12-18T13:45:43;101513.00;;;-3.21;95.72
15634;BME280;14654;48.898;8.308;2022-12-18T13:48:18;101519.88;;;-3.32;96.01
15634;BME280;14654;48.898;8.308;2022-12-18T13:50:49;101517.63;;;-3.41;96.77
15634;BME280;14654;48.898;8.308;2022-12-18T13:53:22;101515.75;;;-3.43;97.37
15634;BME280;14654;48.898;8.308;2022-12-18T13:55:49;101515.41;;;-3.36;97.94
15634;BME280;14654;48.898;8.308;2022-12-18T13:58:14;101510.97;;;-3.27;98.09
15634;BME280;14654;48.898;8.308;2022-12-18T14:00:43;101503.88;;;-3.19;98.05
15634;BME280;14654;48.898;8.308;2022-12-18T14:03:35;101512.88;;;-3.11;98.04
15634;BME280;14654;48.898;8.308;2022-12-18T14:06:11;101516.69;;;-3.04;98.10
15634;BME280;14654;48.898;8.308;2022-12-18T14:08:42;101510.03;;;-3.02;98.05
15634;BME280;14654;48.898;8.308;2022-12-18T14:11:19;101511.91;;;-2.99;98.22
15634;BME280;14654;48.898;8.308;2022-12-18T14:13:45;101516.28;;;-2.97;98.20
15634;BME280;14654;48.898;8.308;2022-12-18T14:16:14;101516.28;;;-2.97;98.10
15634;BME280;14654;48.898;8.308;2022-12-18T14:21:21;101518.94;;;-2.95;98.45
15634;BME280;14654;48.898;8.308;2022-12-18T14:23:47;101520.38;;;-2.99;98.61
15634;BME280;14654;48.898;8.308;2022-12-18T14:26:28;101514.34;;;-3.01;98.74
15634;BME280;14654;48.898;8.308;2022-12-18T14:28:58;101512.47;;;-3.03;98.59